createdAt,value
2023-03-08T00:01:27.027Z,5.85
2023-03-08T00:03:56.601Z,5.90
2023-03-08T00:06:25.868Z,5.35
2023-03-08T00:09:01.619Z,5.30
2023-03-08T00:11:30.722Z,4.63
2023-03-08T00:13:58.919Z,4.28
2023-03-08T00:16:27.161Z,3.80
2023-03-08T00:18:55.174Z,3.70
2023-03-08T00:21:23.166Z,3.20
2023-03-08T00:23:54.101Z,3.58
2023-03-08T00:26:21.883Z,3.45
2023-03-08T00:28:50.284Z,3.40
2023-03-08T00:31:17.967Z,3.20
2023-03-08T00:33:46.261Z,3.25
2023-03-08T00:36:19.369Z,3.10
2023-03-08T00:38:48.462Z,3.58
2023-03-08T00:41:16.566Z,3.38
2023-03-08T00:43:44.698Z,3.58
2023-03-08T00:46:13.491Z,3.83
2023-03-08T00:48:42.171Z,3.65
2023-03-08T00:51:14.784Z,3.38
2023-03-08T00:53:42.924Z,3.78
2023-03-08T00:56:10.804Z,4.03
2023-03-08T00:58:40.226Z,4.25
2023-03-08T01:01:11.778Z,4.28
2023-03-08T01:03:39.716Z,4.43
2023-03-08T01:06:10.306Z,4.13
2023-03-08T01:08:40.097Z,4.10
2023-03-08T01:11:13.729Z,4.18
2023-03-08T01:16:16.949Z,4.00
2023-03-08T01:18:45.138Z,4.70
2023-03-08T01:21:13.410Z,4.50
2023-03-08T01:23:42.667Z,5.45
2023-03-08T01:26:16.551Z,4.95
2023-03-08T01:28:44.741Z,5.03
2023-03-08T01:31:16.430Z,5.18
2023-03-08T01:33:45.950Z,5.47
2023-03-08T01:36:19.912Z,4.75
2023-03-08T01:38:48.361Z,5.13
2023-03-08T01:41:17.956Z,5.53
2023-03-08T01:43:46.935Z,5.07
2023-03-08T01:46:24.214Z,6.07
2023-03-08T01:49:27.205Z,6.50
2023-03-08T01:52:17.330Z,5.90
2023-03-08T01:54:53.484Z,5.30
2023-03-08T01:57:33.191Z,4.82
2023-03-08T02:00:10.711Z,5.03
2023-03-08T02:02:44.728Z,4.35
2023-03-08T02:05:13.016Z,4.00
2023-03-08T02:07:42.000Z,4.00
2023-03-08T02:10:11.921Z,4.35
2023-03-08T02:12:41.135Z,3.80
2023-03-08T02:15:14.075Z,4.35
2023-03-08T02:17:44.483Z,5.07
2023-03-08T02:20:28.242Z,5.10
2023-03-08T02:22:55.962Z,5.18
2023-03-08T02:25:26.349Z,5.07
2023-03-08T02:27:55.095Z,4.50
2023-03-08T02:30:26.802Z,4.82
2023-03-08T02:32:54.722Z,4.28
2023-03-08T02:35:22.699Z,4.70
2023-03-08T02:37:50.426Z,4.20
2023-03-08T02:40:18.687Z,3.88
2023-03-08T02:42:46.376Z,4.35
2023-03-08T02:45:14.564Z,3.95
2023-03-08T02:47:42.450Z,3.15
2023-03-08T02:50:11.164Z,3.45
2023-03-08T02:52:39.523Z,3.10
2023-03-08T02:55:08.160Z,3.50
2023-03-08T02:57:35.755Z,3.55
2023-03-08T03:00:06.545Z,3.40
2023-03-08T03:02:34.778Z,3.08
2023-03-08T03:05:07.959Z,3.45
2023-03-08T03:07:43.378Z,2.70
2023-03-08T03:10:17.362Z,3.28
2023-03-08T03:12:45.282Z,3.15
2023-03-08T03:15:17.501Z,3.03
2023-03-08T03:17:47.532Z,3.40
2023-03-08T03:20:15.863Z,2.80
2023-03-08T03:22:44.905Z,2.60
2023-03-08T03:25:13.195Z,3.90
2023-03-08T03:27:41.460Z,2.65
2023-03-08T03:30:10.634Z,3.03
2023-03-08T03:32:38.904Z,2.60
2023-03-08T03:35:07.441Z,2.70
2023-03-08T03:37:37.280Z,2.85
2023-03-08T03:40:06.853Z,3.13
2023-03-08T03:42:34.794Z,2.97
2023-03-08T03:45:11.238Z,3.33
2023-03-08T03:47:39.307Z,3.33
2023-03-08T03:50:10.043Z,3.10
2023-03-08T03:52:50.959Z,3.50
2023-03-08T03:55:18.979Z,3.30
2023-03-08T03:57:46.941Z,3.53
2023-03-08T04:00:18.183Z,4.25
2023-03-08T04:02:53.592Z,4.47
2023-03-08T04:05:22.692Z,4.13
2023-03-08T04:07:53.352Z,4.43
2023-03-08T04:10:24.881Z,4.10
2023-03-08T04:12:54.170Z,5.57
2023-03-08T04:15:23.535Z,5.90
2023-03-08T04:17:54.056Z,5.65
2023-03-08T04:20:25.108Z,6.20
2023-03-08T04:22:56.806Z,6.60
2023-03-08T04:25:31.720Z,7.25
2023-03-08T04:28:01.471Z,7.97
2023-03-08T04:30:30.709Z,7.70
2023-03-08T04:32:59.233Z,7.60
2023-03-08T04:35:33.460Z,8.75
2023-03-08T04:38:01.228Z,9.55
2023-03-08T04:40:30.081Z,10.30
2023-03-08T04:43:00.929Z,11.02
2023-03-08T04:45:35.601Z,10.32
2023-03-08T04:48:07.709Z,10.20
2023-03-08T04:50:36.514Z,10.00
2023-03-08T04:53:04.865Z,10.13
2023-03-08T04:55:33.219Z,9.75
2023-03-08T04:58:01.383Z,10.02
2023-03-08T05:00:31.457Z,10.27
2023-03-08T05:02:59.729Z,10.88
2023-03-08T05:05:27.896Z,10.20
2023-03-08T05:07:55.604Z,10.75
2023-03-08T05:10:23.824Z,10.35
2023-03-08T05:12:51.712Z,10.73
2023-03-08T05:15:19.970Z,12.63
2023-03-08T05:17:47.676Z,10.85
2023-03-08T05:20:16.126Z,11.23
2023-03-08T05:22:57.643Z,11.82
2023-03-08T05:25:31.605Z,13.25
2023-03-08T05:28:01.251Z,12.20
2023-03-08T05:30:29.173Z,11.93
2023-03-08T05:32:57.160Z,11.73
2023-03-08T05:35:25.801Z,11.80
2023-03-08T05:37:53.613Z,11.68
2023-03-08T05:40:21.506Z,12.02
2023-03-08T05:42:50.102Z,11.43
2023-03-08T05:45:19.276Z,11.55
2023-03-08T05:47:47.014Z,11.27
2023-03-08T05:50:15.182Z,11.80
2023-03-08T05:52:45.346Z,12.10
2023-03-08T05:55:17.722Z,12.15
2023-03-08T05:57:47.399Z,11.48
2023-03-08T06:00:16.220Z,10.65
2023-03-08T06:02:44.084Z,11.45
2023-03-08T06:05:14.143Z,10.80
2023-03-08T06:07:43.864Z,10.68
2023-03-08T06:10:14.407Z,10.50
2023-03-08T06:12:42.163Z,11.20
2023-03-08T06:15:13.902Z,12.00
2023-03-08T06:17:42.386Z,12.13
2023-03-08T06:20:12.787Z,11.57
2023-03-08T06:22:44.628Z,11.60
2023-03-08T06:25:13.093Z,10.18
2023-03-08T06:27:40.994Z,9.90
2023-03-08T06:30:22.951Z,10.55
2023-03-08T06:32:52.162Z,10.70
2023-03-08T06:35:20.379Z,11.18
2023-03-08T06:37:54.621Z,12.07
2023-03-08T06:40:22.792Z,10.25
2023-03-08T06:42:50.553Z,9.88
2023-03-08T06:45:18.861Z,9.93
2023-03-08T06:47:46.608Z,9.15
2023-03-08T06:50:15.320Z,7.85
2023-03-08T06:52:46.339Z,7.90
2023-03-08T06:55:15.639Z,7.95
2023-03-08T06:57:43.837Z,7.25
2023-03-08T07:00:13.336Z,7.32
2023-03-08T07:02:41.179Z,7.25
2023-03-08T07:05:09.882Z,7.00
2023-03-08T07:07:37.511Z,7.00
2023-03-08T07:10:05.961Z,7.88
2023-03-08T07:12:33.731Z,7.03
2023-03-08T07:15:01.647Z,7.10
2023-03-08T07:17:29.855Z,7.15
2023-03-08T07:19:57.719Z,7.20
2023-03-08T07:22:25.408Z,6.90
2023-03-08T07:24:53.303Z,6.55
2023-03-08T07:27:20.947Z,6.47
2023-03-08T07:29:48.897Z,6.55
2023-03-08T07:32:16.992Z,6.63
2023-03-08T07:34:45.531Z,6.30
2023-03-08T07:37:14.173Z,6.43
2023-03-08T07:39:42.878Z,6.25
2023-03-08T07:42:11.931Z,6.78
2023-03-08T07:44:40.634Z,7.43
2023-03-08T07:47:09.168Z,6.20
2023-03-08T07:49:37.571Z,6.57
2023-03-08T07:52:05.591Z,6.10
2023-03-08T07:54:33.472Z,6.28
2023-03-08T07:57:01.187Z,7.00
2023-03-08T07:59:29.133Z,6.32
2023-03-08T08:01:57.015Z,5.90
2023-03-08T08:04:25.146Z,6.13
2023-03-08T08:06:52.801Z,6.60
2023-03-08T08:09:20.655Z,6.38
2023-03-08T08:11:48.337Z,5.43
2023-03-08T08:14:16.252Z,5.40
2023-03-08T08:16:43.915Z,5.78
2023-03-08T08:19:14.618Z,5.95
2023-03-08T08:21:42.318Z,7.38
2023-03-08T08:24:10.305Z,5.82
2023-03-08T08:26:37.960Z,5.97
2023-03-08T08:29:06.125Z,5.13
2023-03-08T08:31:34.050Z,5.55
2023-03-08T08:34:02.070Z,6.47
2023-03-08T08:36:29.878Z,6.20
2023-03-08T08:38:57.824Z,5.53
2023-03-08T08:41:25.839Z,5.80
2023-03-08T08:43:56.704Z,6.90
2023-03-08T08:46:24.553Z,6.38
2023-03-08T08:48:52.389Z,6.43
2023-03-08T08:51:20.426Z,7.00
2023-03-08T08:53:48.699Z,7.43
2023-03-08T08:56:27.537Z,5.65
2023-03-08T08:59:00.855Z,5.10
2023-03-08T09:01:32.157Z,5.15
2023-03-08T09:04:00.617Z,5.30
2023-03-08T09:06:29.483Z,4.88
2023-03-08T09:09:00.451Z,6.07
2023-03-08T09:11:28.801Z,7.18
2023-03-08T09:13:57.636Z,5.32
2023-03-08T09:16:28.210Z,4.32
2023-03-08T09:18:57.724Z,5.35
2023-03-08T09:21:26.884Z,5.20
2023-03-08T09:23:56.088Z,5.32
2023-03-08T09:26:23.770Z,4.65
2023-03-08T09:28:51.793Z,6.97
2023-03-08T09:31:19.539Z,6.68
2023-03-08T09:33:54.653Z,9.63
2023-03-08T09:36:22.514Z,5.18
2023-03-08T09:38:52.927Z,6.03
2023-03-08T09:41:25.746Z,5.43
2023-03-08T09:44:12.177Z,6.73
2023-03-08T09:47:07.261Z,5.68
2023-03-08T09:49:37.150Z,5.25
2023-03-08T09:52:16.597Z,7.95
2023-03-08T09:54:46.057Z,7.70
2023-03-08T09:57:21.406Z,5.80
2023-03-08T10:00:02.343Z,5.90
2023-03-08T10:03:26.453Z,5.25
2023-03-08T10:06:19.496Z,4.80
2023-03-08T10:08:59.812Z,4.60
2023-03-08T10:11:32.540Z,5.35
2023-03-08T10:14:09.560Z,5.30
2023-03-08T10:16:45.911Z,5.03
2023-03-08T10:19:57.688Z,4.57
2023-03-08T10:22:32.600Z,4.50
2023-03-08T10:25:17.656Z,4.25
2023-03-08T10:27:48.294Z,4.10
2023-03-08T10:30:19.708Z,4.30
2023-03-08T10:32:51.434Z,4.15
2023-03-08T10:35:31.680Z,3.97
2023-03-08T10:37:59.683Z,3.72
2023-03-08T10:40:27.462Z,3.70
2023-03-08T10:43:05.583Z,4.07
2023-03-08T10:45:33.712Z,4.20
2023-03-08T10:48:04.051Z,4.43
2023-03-08T10:50:37.528Z,4.32
2023-03-08T10:55:47.960Z,3.90
2023-03-08T10:58:37.328Z,4.63
2023-03-08T11:01:06.854Z,4.75
2023-03-08T11:03:34.982Z,4.70
2023-03-08T11:06:05.692Z,4.53
2023-03-08T11:08:39.609Z,5.40
2023-03-08T11:11:13.036Z,5.13
2023-03-08T11:13:45.155Z,5.45
2023-03-08T11:16:30.824Z,4.97
2023-03-08T11:19:16.610Z,5.10
2023-03-08T11:22:08.463Z,8.48
2023-03-08T11:24:57.209Z,5.53
2023-03-08T11:27:46.925Z,4.95
2023-03-08T11:30:40.698Z,4.50
2023-03-08T11:33:08.601Z,4.72
2023-03-08T11:35:40.404Z,3.83
2023-03-08T11:38:29.237Z,3.83
2023-03-08T11:41:16.788Z,3.53
2023-03-08T11:44:22.155Z,4.00
2023-03-08T11:47:07.958Z,3.75
2023-03-08T11:49:41.794Z,4.28
2023-03-08T11:55:07.650Z,3.80
2023-03-08T11:57:43.895Z,4.50
2023-03-08T12:00:35.431Z,4.72
2023-03-08T12:03:18.787Z,5.13
2023-03-08T12:06:01.239Z,5.60
2023-03-08T12:08:39.975Z,5.15
2023-03-08T12:12:15.105Z,5.10
2023-03-08T12:15:00.283Z,4.80
2023-03-08T12:17:53.171Z,4.32
2023-03-08T12:20:23.522Z,4.80
2023-03-08T12:23:20.750Z,4.32
2023-03-08T12:25:54.935Z,4.07
2023-03-08T12:28:29.704Z,4.22
2023-03-08T12:31:27.403Z,4.25
2023-03-08T12:33:58.243Z,4.30
2023-03-08T12:36:44.237Z,7.22
2023-03-08T12:39:35.827Z,5.65
2023-03-08T12:42:16.537Z,6.22
2023-03-08T12:44:44.710Z,4.80
2023-03-08T12:47:13.365Z,4.82
2023-03-08T12:49:45.277Z,4.85
2023-03-08T12:52:18.917Z,5.10
2023-03-08T12:54:57.218Z,4.70
2023-03-08T12:57:42.895Z,4.50
2023-03-08T13:00:33.680Z,5.30
2023-03-08T13:03:04.594Z,4.30
2023-03-08T13:05:36.576Z,5.35
2023-03-08T13:08:13.371Z,4.35
2023-03-08T13:10:49.972Z,4.05
2023-03-08T13:13:42.158Z,4.32
2023-03-08T13:16:15.948Z,4.53
2023-03-08T13:21:35.630Z,3.83
2023-03-08T13:24:29.853Z,4.40
2023-03-08T13:27:35.391Z,5.00
2023-03-08T13:30:25.614Z,5.05
2023-03-08T13:32:53.638Z,4.90
2023-03-08T13:35:22.287Z,4.75
2023-03-08T13:37:59.826Z,5.32
2023-03-08T13:40:30.493Z,5.50
2023-03-08T13:43:05.529Z,5.15
2023-03-08T13:45:33.526Z,5.25
2023-03-08T13:48:07.167Z,5.25
2023-03-08T13:53:19.157Z,4.95
2023-03-08T13:55:51.701Z,5.70
2023-03-08T13:58:45.955Z,6.18
2023-03-08T14:01:19.933Z,6.05
2023-03-08T14:03:48.745Z,5.07
2023-03-08T14:06:16.663Z,6.18
2023-03-08T14:08:47.259Z,5.63
2023-03-08T14:11:38.110Z,5.40
2023-03-08T14:14:15.317Z,4.90
2023-03-08T14:16:44.047Z,5.40
2023-03-08T14:19:19.197Z,5.25
2023-03-08T14:21:54.461Z,5.00
2023-03-08T14:24:34.549Z,5.80
2023-03-08T14:27:24.413Z,5.45
2023-03-08T14:30:03.697Z,5.43
2023-03-08T14:32:35.838Z,5.20
2023-03-08T14:35:22.249Z,5.68
2023-03-08T14:37:55.877Z,5.10
2023-03-08T14:40:35.916Z,4.85
2023-03-08T14:43:06.889Z,5.35
2023-03-08T14:45:41.656Z,5.47
2023-03-08T14:48:24.572Z,5.15
2023-03-08T14:51:26.947Z,4.75
2023-03-08T14:53:57.599Z,4.95
2023-03-08T14:56:25.311Z,5.25
2023-03-08T14:58:53.883Z,5.13
2023-03-08T15:01:26.072Z,6.57
2023-03-08T15:03:54.153Z,7.25
2023-03-08T15:06:29.458Z,5.32
2023-03-08T15:08:59.339Z,5.50
2023-03-08T15:11:31.426Z,5.15
2023-03-08T15:13:59.736Z,5.50
2023-03-08T15:16:28.030Z,5.35
2023-03-08T15:18:56.182Z,6.18
2023-03-08T15:21:26.719Z,6.70
2023-03-08T15:23:55.184Z,6.35
2023-03-08T15:26:26.296Z,5.32
2023-03-08T15:28:54.779Z,5.63
2023-03-08T15:31:22.573Z,5.50
2023-03-08T15:33:50.664Z,5.03
2023-03-08T15:36:19.355Z,5.90
2023-03-08T15:38:47.444Z,5.80
2023-03-08T15:41:16.849Z,5.10
2023-03-08T15:43:45.016Z,5.95
2023-03-08T15:46:13.958Z,5.38
2023-03-08T15:48:42.931Z,6.03
2023-03-08T15:51:21.431Z,5.95
2023-03-08T15:53:49.919Z,5.97
2023-03-08T15:56:17.977Z,5.78
2023-03-08T15:58:45.904Z,6.10
2023-03-08T16:01:13.597Z,6.13
2023-03-08T16:03:41.605Z,5.68
2023-03-08T16:06:11.547Z,5.88
2023-03-08T16:08:39.771Z,6.20
2023-03-08T16:11:12.514Z,6.43
2023-03-08T16:13:40.541Z,5.97
2023-03-08T16:16:09.370Z,6.40
2023-03-08T16:18:38.061Z,6.15
2023-03-08T16:21:09.465Z,6.05
2023-03-08T16:23:39.085Z,6.40
2023-03-08T16:26:16.337Z,6.43
2023-03-08T16:28:46.916Z,6.70
2023-03-08T16:31:16.266Z,7.43
2023-03-08T16:33:44.627Z,6.72
2023-03-08T16:36:13.051Z,6.65
2023-03-08T16:38:41.847Z,6.97
2023-03-08T16:41:13.143Z,7.43
2023-03-08T16:43:47.225Z,7.70
2023-03-08T16:46:18.402Z,6.93
2023-03-08T16:48:49.706Z,7.93
2023-03-08T16:51:21.343Z,7.00
2023-03-08T16:53:49.486Z,7.10
2023-03-08T16:56:22.796Z,8.10
2023-03-08T16:58:51.445Z,7.68
2023-03-08T17:01:20.027Z,8.00
2023-03-08T17:03:48.356Z,7.60
2023-03-08T17:06:18.398Z,7.85
2023-03-08T17:08:46.690Z,7.30
2023-03-08T17:11:22.633Z,7.90
2023-03-08T17:13:52.826Z,8.02
2023-03-08T17:16:22.720Z,9.00
2023-03-08T17:18:51.613Z,7.93
2023-03-08T17:21:21.062Z,7.18
2023-03-08T17:23:50.938Z,7.25
2023-03-08T17:26:21.601Z,6.85
2023-03-08T17:28:51.771Z,7.25
2023-03-08T17:31:21.472Z,6.90
2023-03-08T17:33:50.295Z,6.68
2023-03-08T17:36:18.474Z,7.30
2023-03-08T17:38:46.475Z,7.35
2023-03-08T17:41:16.038Z,7.85
2023-03-08T17:43:44.147Z,7.40
2023-03-08T17:46:21.352Z,8.02
2023-03-08T17:48:50.789Z,7.93
2023-03-08T17:51:20.568Z,8.10
2023-03-08T17:53:48.799Z,8.48
2023-03-08T17:56:21.151Z,9.00
2023-03-08T17:58:49.901Z,9.35
2023-03-08T18:01:23.823Z,8.45
2023-03-08T18:03:52.931Z,8.45
2023-03-08T18:06:23.558Z,8.85
2023-03-08T18:08:51.768Z,8.50
2023-03-08T18:11:20.281Z,9.60
2023-03-08T18:13:48.862Z,9.15
2023-03-08T18:16:16.678Z,9.50
2023-03-08T18:18:45.959Z,9.27
2023-03-08T18:21:14.447Z,9.85
2023-03-08T18:23:43.328Z,10.05
2023-03-08T18:26:12.884Z,10.23
2023-03-08T18:28:41.618Z,9.95
2023-03-08T18:31:11.709Z,10.63
2023-03-08T18:33:39.681Z,10.45
2023-03-08T18:36:07.629Z,10.25
2023-03-08T18:38:35.911Z,9.77
2023-03-08T18:41:22.428Z,9.93
2023-03-08T18:43:51.360Z,11.20
2023-03-08T18:46:19.368Z,9.80
2023-03-08T18:48:50.869Z,11.02
2023-03-08T18:51:18.570Z,10.10
2023-03-08T18:53:46.647Z,10.60
2023-03-08T18:56:14.395Z,11.40
2023-03-08T18:58:42.268Z,12.48
2023-03-08T19:01:15.191Z,13.10
2023-03-08T19:03:44.289Z,12.50
2023-03-08T19:06:13.345Z,12.30
2023-03-08T19:08:41.804Z,13.25
2023-03-08T19:11:16.514Z,13.35
2023-03-08T19:13:44.681Z,13.73
2023-03-08T19:16:27.025Z,13.35
2023-03-08T19:18:57.744Z,13.48
2023-03-08T19:21:28.488Z,13.88
2023-03-08T19:23:56.995Z,14.00
2023-03-08T19:26:36.641Z,15.35
2023-03-08T19:29:21.646Z,15.45
2023-03-08T19:34:21.142Z,15.63
2023-03-08T19:36:49.439Z,14.88
2023-03-08T19:39:26.658Z,15.57
2023-03-08T19:41:57.586Z,15.85
2023-03-08T19:44:26.571Z,15.32
2023-03-08T19:46:55.232Z,14.93
2023-03-08T19:49:32.218Z,15.45
2023-03-08T19:52:03.001Z,15.13
2023-03-08T19:54:31.409Z,15.02
2023-03-08T19:57:00.154Z,17.00
2023-03-08T19:59:29.038Z,17.98
2023-03-08T20:01:57.154Z,19.20
2023-03-08T20:04:25.548Z,18.05
2023-03-08T20:06:53.289Z,19.33
2023-03-08T20:09:22.590Z,20.10
2023-03-08T20:11:53.315Z,19.45
2023-03-08T20:14:23.186Z,18.83
2023-03-08T20:16:51.536Z,18.75
2023-03-08T20:19:19.989Z,19.15
2023-03-08T20:21:47.632Z,19.15
2023-03-08T20:24:18.249Z,17.73
2023-03-08T20:26:46.552Z,17.65
2023-03-08T20:29:15.489Z,18.90
2023-03-08T20:31:43.986Z,18.00
2023-03-08T20:34:11.920Z,16.75
2023-03-08T20:36:39.555Z,17.27
2023-03-08T20:39:07.574Z,18.75
2023-03-08T20:41:35.260Z,19.52
2023-03-08T20:44:03.257Z,20.30
2023-03-08T20:46:33.704Z,23.05
2023-03-08T20:49:02.206Z,23.42
2023-03-08T20:51:29.972Z,25.50
2023-03-08T20:53:58.281Z,25.88
2023-03-08T20:56:26.922Z,23.92
2023-03-08T20:58:57.783Z,22.77
2023-03-08T21:01:29.044Z,21.88
2023-03-08T21:03:57.095Z,20.90
2023-03-08T21:06:27.674Z,21.77
2023-03-08T21:08:55.997Z,20.88
2023-03-08T21:11:23.711Z,21.42
2023-03-08T21:13:52.963Z,24.02
2023-03-08T21:16:23.585Z,25.15
2023-03-08T21:18:56.777Z,24.30
2023-03-08T21:21:34.335Z,24.17
2023-03-08T21:24:14.697Z,23.42
2023-03-08T21:26:42.757Z,25.58
2023-03-08T21:29:13.674Z,26.85
2023-03-08T21:31:43.997Z,28.58
2023-03-08T21:34:13.530Z,28.63
2023-03-08T21:36:41.656Z,28.10
2023-03-08T21:39:11.687Z,24.27
2023-03-08T21:41:41.742Z,24.30
2023-03-08T21:44:14.988Z,23.73
2023-03-08T21:46:43.660Z,21.73
2023-03-08T21:49:17.981Z,20.25
2023-03-08T21:54:13.840Z,17.10
2023-03-08T21:56:41.559Z,20.38
2023-03-08T21:59:09.513Z,22.23
2023-03-08T22:01:37.384Z,22.67
2023-03-08T22:04:06.413Z,23.23
2023-03-08T22:06:34.181Z,21.13
2023-03-08T22:09:02.513Z,21.27
2023-03-08T22:11:30.630Z,21.42
2023-03-08T22:14:01.414Z,18.17
2023-03-08T22:16:30.651Z,17.55
2023-03-08T22:19:01.603Z,17.27
2023-03-08T22:21:30.461Z,16.13
2023-03-08T22:24:01.135Z,17.30
2023-03-08T22:26:30.976Z,16.20
2023-03-08T22:28:59.846Z,18.50
2023-03-08T22:31:29.994Z,18.13
2023-03-08T22:33:58.347Z,18.48
2023-03-08T22:36:26.417Z,18.90
2023-03-08T22:38:54.581Z,19.63
2023-03-08T22:41:24.658Z,20.02
2023-03-08T22:43:53.417Z,19.92
2023-03-08T22:46:26.852Z,20.25
2023-03-08T22:48:58.204Z,20.15
2023-03-08T22:51:28.407Z,20.15
2023-03-08T22:53:57.030Z,18.85
2023-03-08T22:56:30.228Z,18.92
2023-03-08T22:58:59.630Z,18.33
2023-03-08T23:01:28.670Z,18.63
2023-03-08T23:03:59.558Z,18.35
2023-03-08T23:06:28.741Z,17.95
2023-03-08T23:08:59.300Z,18.23
2023-03-08T23:11:27.407Z,18.60
2023-03-08T23:13:55.558Z,18.58
2023-03-08T23:16:23.375Z,18.08
2023-03-08T23:19:13.787Z,17.77
2023-03-08T23:21:42.249Z,19.30
2023-03-08T23:25:24.806Z,19.95
2023-03-08T23:27:52.811Z,18.90
2023-03-08T23:30:20.696Z,18.70
2023-03-08T23:33:50.930Z,18.33
2023-03-08T23:36:21.203Z,17.23
2023-03-08T23:38:50.281Z,16.40
2023-03-08T23:41:18.645Z,16.45
2023-03-08T23:43:47.901Z,16.98
2023-03-08T23:46:20.007Z,16.75
2023-03-08T23:48:49.327Z,17.00
2023-03-08T23:51:19.907Z,17.02
2023-03-08T23:53:53.278Z,17.50
2023-03-08T23:56:27.510Z,17.25
2023-03-08T23:58:57.683Z,17.13
